Flugplatz Meinerzhagen

Für EDKZ sind keine METAR/TAF Berichte vorhanden.
Es werden die Flugwettermeldungen vom Flugplatz Cologne Bonn in 41 km Entfernung angezeigt.

Bericht für EDDK

vom 20.09. um 14:20 UTC

Wind 9 kt aus 340°

Sichtweite 10 km oder mehr

gute Sicht, keine Wolken < 5000 ft, keine CB, keine Wettererscheinungen (CAVOK)

Temperatur 26.0°C

Taupunkt 8.0°C

Luftfeuchtigkeit 32%

Luftdruck 1015 hPa

keine wesentliche Wetteränderung innerhalb den nächsten 2 Stunden zu erwarten

EDDK 201420Z 34009KT CAVOK 26/08 Q1015 NOSIG

Prognose für EDDK

vom 20.09. um 11:00 UTC

Zwischen 12:00 UTC und 18:00 UTC

variable Windrichtung mit 3 kt

Sichtweite 10 km oder mehr

keine signifikanten Wettererscheinungen

keine Wolken


Zwischen 12:00 und 15:00 UTC übergehend zu

Wind 6 kt aus 30°

Sichtweite 10 km oder mehr

keine signifikanten Wettererscheinungen

keine Wolken


Zwischen 20:00 und 23:00 UTC übergehend zu

variable Windrichtung mit 3 kt

Sichtweite 10 km oder mehr

keine signifikanten Wettererscheinungen

keine Wolken


Am 21.09. zwischen 09:00 UTC und 16:00 UTC zeitweise

Wind 5 kt aus 110°

TAF EDDK 201100Z 2012/2118 VRB03KT CAVOK BECMG 2012/2015 03006KT BECMG 2020/2023 VRB03KT TEMPO 2109/2116 11005KT
Impressum